sensor_id;sensor_type;location;lat;lon;timestamp;P1;durP1;ratioP1;P2;durP2;ratioP2
49556;SDS011;35462;45.048;7.666;2023-09-19T00:02:38;32.63;;;20.95;;
49556;SDS011;35462;45.048;7.666;2023-09-19T00:17:58;17.90;;;12.30;;
49556;SDS011;35462;45.048;7.666;2023-09-19T00:33:18;17.70;;;13.23;;
49556;SDS011;35462;45.048;7.666;2023-09-19T00:48:41;25.35;;;17.58;;
49556;SDS011;35462;45.048;7.666;2023-09-19T01:04:02;25.27;;;17.20;;
49556;SDS011;35462;45.048;7.666;2023-09-19T01:35:24;27.08;;;18.88;;
49556;SDS011;35462;45.048;7.666;2023-09-19T01:50:44;28.85;;;17.67;;
49556;SDS011;35462;45.048;7.666;2023-09-19T02:06:25;9.35;;;5.65;;
49556;SDS011;35462;45.048;7.666;2023-09-19T02:21:46;6.30;;;3.83;;
49556;SDS011;35462;45.048;7.666;2023-09-19T02:37:07;12.98;;;5.25;;
49556;SDS011;35462;45.048;7.666;2023-09-19T02:52:27;5.45;;;3.58;;
49556;SDS011;35462;45.048;7.666;2023-09-19T03:07:47;18.67;;;9.98;;
49556;SDS011;35462;45.048;7.666;2023-09-19T03:23:10;19.90;;;13.50;;
49556;SDS011;35462;45.048;7.666;2023-09-19T03:38:29;18.52;;;13.60;;
49556;SDS011;35462;45.048;7.666;2023-09-19T03:53:49;17.83;;;12.77;;
49556;SDS011;35462;45.048;7.666;2023-09-19T04:09:09;21.83;;;14.73;;
49556;SDS011;35462;45.048;7.666;2023-09-19T04:24:28;22.48;;;15.02;;
49556;SDS011;35462;45.048;7.666;2023-09-19T04:39:47;28.55;;;18.55;;
49556;SDS011;35462;45.048;7.666;2023-09-19T04:55:08;29.67;;;20.13;;
49556;SDS011;35462;45.048;7.666;2023-09-19T05:10:28;31.67;;;18.42;;
49556;SDS011;35462;45.048;7.666;2023-09-19T05:25:48;31.65;;;19.15;;
49556;SDS011;35462;45.048;7.666;2023-09-19T05:41:08;37.03;;;20.77;;
49556;SDS011;35462;45.048;7.666;2023-09-19T05:56:32;33.75;;;18.63;;
49556;SDS011;35462;45.048;7.666;2023-09-19T06:11:52;26.65;;;17.20;;
49556;SDS011;35462;45.048;7.666;2023-09-19T06:27:11;27.23;;;17.17;;
49556;SDS011;35462;45.048;7.666;2023-09-19T06:42:31;23.85;;;14.30;;
49556;SDS011;35462;45.048;7.666;2023-09-19T06:57:50;23.63;;;13.00;;
49556;SDS011;35462;45.048;7.666;2023-09-19T07:13:09;22.63;;;14.57;;
49556;SDS011;35462;45.048;7.666;2023-09-19T07:28:29;26.13;;;14.85;;
49556;SDS011;35462;45.048;7.666;2023-09-19T07:43:49;22.77;;;13.30;;
49556;SDS011;35462;45.048;7.666;2023-09-19T07:59:08;15.63;;;10.25;;
49556;SDS011;35462;45.048;7.666;2023-09-19T08:14:30;13.88;;;9.35;;
49556;SDS011;35462;45.048;7.666;2023-09-19T08:29:49;23.08;;;9.93;;
49556;SDS011;35462;45.048;7.666;2023-09-19T08:45:16;16.80;;;10.18;;
49556;SDS011;35462;45.048;7.666;2023-09-19T09:00:35;25.77;;;11.85;;
49556;SDS011;35462;45.048;7.666;2023-09-19T09:15:55;23.95;;;13.38;;
49556;SDS011;35462;45.048;7.666;2023-09-19T09:31:24;20.85;;;12.45;;
49556;SDS011;35462;45.048;7.666;2023-09-19T09:46:44;23.17;;;15.45;;
49556;SDS011;35462;45.048;7.666;2023-09-19T10:02:28;22.88;;;13.32;;
49556;SDS011;35462;45.048;7.666;2023-09-19T10:17:48;18.63;;;13.25;;
49556;SDS011;35462;45.048;7.666;2023-09-19T10:33:07;19.38;;;13.30;;
49556;SDS011;35462;45.048;7.666;2023-09-19T10:48:27;19.92;;;14.13;;
49556;SDS011;35462;45.048;7.666;2023-09-19T11:03:46;29.17;;;19.80;;
49556;SDS011;35462;45.048;7.666;2023-09-19T11:19:07;20.77;;;13.35;;
49556;SDS011;35462;45.048;7.666;2023-09-19T11:49:55;15.20;;;11.35;;
49556;SDS011;35462;45.048;7.666;2023-09-19T12:05:16;21.02;;;11.00;;
49556;SDS011;35462;45.048;7.666;2023-09-19T12:20:45;24.13;;;10.48;;
49556;SDS011;35462;45.048;7.666;2023-09-19T12:51:48;15.20;;;9.52;;
49556;SDS011;35462;45.048;7.666;2023-09-19T13:07:08;11.85;;;8.90;;
49556;SDS011;35462;45.048;7.666;2023-09-19T13:23:05;14.38;;;9.57;;
49556;SDS011;35462;45.048;7.666;2023-09-19T13:38:45;14.68;;;10.48;;
49556;SDS011;35462;45.048;7.666;2023-09-19T13:54:07;12.05;;;8.63;;
49556;SDS011;35462;45.048;7.666;2023-09-19T14:09:27;10.38;;;7.57;;
49556;SDS011;35462;45.048;7.666;2023-09-19T14:24:48;8.35;;;4.38;;
49556;SDS011;35462;45.048;7.666;2023-09-19T14:40:08;8.15;;;4.40;;
49556;SDS011;35462;45.048;7.666;2023-09-19T14:55:28;6.13;;;4.95;;
49556;SDS011;35462;45.048;7.666;2023-09-19T15:10:51;5.68;;;2.78;;
49556;SDS011;35462;45.048;7.666;2023-09-19T15:26:12;3.50;;;2.08;;
49556;SDS011;35462;45.048;7.666;2023-09-19T15:41:36;3.75;;;2.03;;
49556;SDS011;35462;45.048;7.666;2023-09-19T15:57:07;5.47;;;2.40;;
49556;SDS011;35462;45.048;7.666;2023-09-19T16:12:27;5.90;;;2.90;;
49556;SDS011;35462;45.048;7.666;2023-09-19T16:27:47;4.60;;;1.90;;
49556;SDS011;35462;45.048;7.666;2023-09-19T16:43:06;2.63;;;1.58;;
49556;SDS011;35462;45.048;7.666;2023-09-19T16:58:26;6.32;;;2.03;;
49556;SDS011;35462;45.048;7.666;2023-09-19T17:13:45;5.45;;;2.28;;
49556;SDS011;35462;45.048;7.666;2023-09-19T17:29:08;4.97;;;2.85;;
49556;SDS011;35462;45.048;7.666;2023-09-19T17:44:28;5.18;;;2.40;;
49556;SDS011;35462;45.048;7.666;2023-09-19T17:59:53;6.50;;;3.33;;
49556;SDS011;35462;45.048;7.666;2023-09-19T18:15:13;6.95;;;3.15;;
49556;SDS011;35462;45.048;7.666;2023-09-19T18:30:32;5.10;;;2.95;;
49556;SDS011;35462;45.048;7.666;2023-09-19T18:45:56;6.80;;;4.57;;
49556;SDS011;35462;45.048;7.666;2023-09-19T19:01:17;13.40;;;4.25;;
49556;SDS011;35462;45.048;7.666;2023-09-19T19:16:38;7.13;;;4.55;;
49556;SDS011;35462;45.048;7.666;2023-09-19T19:31:57;8.07;;;4.50;;
49556;SDS011;35462;45.048;7.666;2023-09-19T19:47:17;10.60;;;5.82;;
49556;SDS011;35462;45.048;7.666;2023-09-19T20:02:36;7.53;;;4.75;;
49556;SDS011;35462;45.048;7.666;2023-09-19T20:17:55;10.57;;;5.10;;
49556;SDS011;35462;45.048;7.666;2023-09-19T20:33:18;8.15;;;4.63;;
49556;SDS011;35462;45.048;7.666;2023-09-19T20:48:41;5.63;;;3.75;;
49556;SDS011;35462;45.048;7.666;2023-09-19T21:04:01;6.90;;;3.33;;
49556;SDS011;35462;45.048;7.666;2023-09-19T21:19:22;6.18;;;4.18;;
49556;SDS011;35462;45.048;7.666;2023-09-19T21:34:41;6.55;;;3.85;;
49556;SDS011;35462;45.048;7.666;2023-09-19T21:50:01;7.93;;;4.53;;
49556;SDS011;35462;45.048;7.666;2023-09-19T22:05:25;7.95;;;4.00;;
49556;SDS011;35462;45.048;7.666;2023-09-19T22:20:45;8.23;;;3.80;;
49556;SDS011;35462;45.048;7.666;2023-09-19T22:36:08;7.47;;;3.50;;
49556;SDS011;35462;45.048;7.666;2023-09-19T22:51:28;6.05;;;4.13;;
49556;SDS011;35462;45.048;7.666;2023-09-19T23:06:57;6.68;;;4.05;;
49556;SDS011;35462;45.048;7.666;2023-09-19T23:22:24;12.50;;;4.63;;
49556;SDS011;35462;45.048;7.666;2023-09-19T23:37:47;9.00;;;3.80;;
49556;SDS011;35462;45.048;7.666;2023-09-19T23:53:07;6.50;;;2.90;;
